Time;durP1;ratioP1;P1;durP2;ratioP2;P2;SDS_P1;SDS_P2;PMS_P1;PMS_P2;Temp;Humidity;BMP_temperature;BMP_pressure;BME280_temperature;BME280_humidity;BME280_pressure;Samples;Min_cycle;Max_cycle;Signal;HPM_P1;HPM_P2
2020/12/08 00:02:11;;;;;;;24.00;15.80;;;;;;;5.08;63.67;95107.69;5073553;28;20183;-68
2020/12/08 00:04:38;;;;;;;24.07;15.20;;;;;;;4.87;64.36;95112.66;5064935;28;20630;-67
2020/12/08 00:07:05;;;;;;;25.03;15.10;;;;;;;4.70;64.27;95117.09;5072222;28;20428;-68
2020/12/08 00:09:31;;;;;;;27.23;15.23;;;;;;;4.57;64.93;95121.03;5069186;28;20476;-68
2020/12/08 00:11:57;;;;;;;22.90;15.13;;;;;;;4.78;64.74;95121.47;5070355;28;20548;-69
2020/12/08 00:14:23;;;;;;;26.20;14.93;;;;;;;4.67;65.05;95131.19;5072820;28;20860;-67
2020/12/08 00:16:48;;;;;;;22.23;14.10;;;;;;;4.82;64.87;95122.72;5057416;28;20212;-68
2020/12/08 00:19:14;;;;;;;26.30;15.50;;;;;;;4.51;65.77;95121.66;5072411;28;20557;-67
2020/12/08 00:21:44;;;;;;;25.00;15.73;;;;;;;4.69;65.21;95111.09;5072668;28;20538;-69
2020/12/08 00:24:13;;;;;;;26.67;16.23;;;;;;;4.82;65.29;95097.59;5056717;28;20209;-67
2020/12/08 00:26:40;;;;;;;26.60;15.77;;;;;;;4.55;65.99;95097.03;5072545;28;20448;-69
2020/12/08 00:29:06;;;;;;;27.87;17.00;;;;;;;4.80;65.02;95099.53;5062634;28;20479;-69
2020/12/08 00:31:32;;;;;;;24.97;15.47;;;;;;;4.92;64.39;95092.19;5047084;28;20465;-67
2020/12/08 00:33:58;;;;;;;25.60;15.87;;;;;;;4.89;64.96;95088.16;5069822;28;20863;-70
2020/12/08 00:36:23;;;;;;;30.73;17.00;;;;;;;5.01;64.69;95104.16;5068413;28;20190;-69
2020/12/08 00:38:49;;;;;;;26.57;16.33;;;;;;;4.80;64.98;95109.09;5071965;28;20186;-68
2020/12/08 00:41:19;;;;;;;27.67;16.60;;;;;;;4.74;65.19;95108.81;5071374;28;20946;-67
2020/12/08 00:43:46;;;;;;;27.77;16.67;;;;;;;4.84;65.26;95105.19;5072588;28;20186;-68
2020/12/08 00:46:15;;;;;;;25.50;15.60;;;;;;;4.90;64.48;95114.94;5056953;28;20501;-68
2020/12/08 00:48:42;;;;;;;26.83;15.90;;;;;;;5.00;64.68;95115.53;5058210;28;20836;-69
2020/12/08 00:51:08;;;;;;;23.80;15.40;;;;;;;4.96;64.99;95118.63;5064170;28;20429;-69
2020/12/08 00:53:34;;;;;;;28.33;15.60;;;;;;;4.96;65.35;95106.44;5069476;28;20809;-67
2020/12/08 00:56:00;;;;;;;26.30;15.43;;;;;;;4.62;65.86;95099.75;5068849;28;20418;-66
2020/12/08 00:58:26;;;;;;;34.43;17.80;;;;;;;4.70;65.80;95086.75;5072628;28;20186;-68
2020/12/08 01:00:53;;;;;;;26.50;16.40;;;;;;;4.84;65.38;95095.66;5071972;28;20441;-67
2020/12/08 01:03:19;;;;;;;26.60;16.73;;;;;;;4.77;65.98;95110.25;5072216;28;20495;-68
2020/12/08 01:05:45;;;;;;;29.93;16.33;;;;;;;4.66;66.38;95102.81;5071810;28;20425;-67
2020/12/08 01:08:10;;;;;;;29.40;17.30;;;;;;;4.75;65.75;95102.66;5071997;28;20845;-67
2020/12/08 01:10:36;;;;;;;32.37;18.30;;;;;;;4.68;66.46;95099.09;5067687;28;20476;-69
2020/12/08 01:13:02;;;;;;;36.10;17.67;;;;;;;4.70;65.95;95104.13;5066892;28;20290;-69
2020/12/08 01:15:28;;;;;;;31.63;17.73;;;;;;;4.66;66.21;95108.03;5058887;28;20188;-68
2020/12/08 01:17:54;;;;;;;28.37;17.80;;;;;;;4.67;66.67;95109.63;5067753;28;20494;-71
2020/12/08 01:20:20;;;;;;;32.13;16.93;;;;;;;4.59;66.98;95108.69;5070177;28;20854;-66
2020/12/08 01:22:45;;;;;;;27.83;17.37;;;;;;;4.88;66.12;95103.91;5071332;28;20345;-68
2020/12/08 01:25:11;;;;;;;28.43;17.03;;;;;;;4.99;65.72;95100.09;5064447;28;20182;-68
2020/12/08 01:27:37;;;;;;;32.17;17.20;;;;;;;5.01;64.75;95090.38;5071794;28;20664;-68
2020/12/08 01:30:04;;;;;;;27.20;16.50;;;;;;;4.86;65.38;95082.47;5068605;28;20448;-69
2020/12/08 01:32:30;;;;;;;35.70;17.50;;;;;;;4.53;67.67;95082.59;5065320;28;20221;-67
2020/12/08 01:34:55;;;;;;;28.83;17.17;;;;;;;4.81;65.94;95080.41;5071230;28;20425;-68
2020/12/08 01:37:21;;;;;;;30.80;16.60;;;;;;;4.73;66.57;95088.19;5071686;28;20273;-68
2020/12/08 01:39:47;;;;;;;28.50;16.60;;;;;;;4.53;67.34;95093.00;5071158;28;20708;-67
2020/12/08 01:42:12;;;;;;;27.13;16.67;;;;;;;4.68;66.72;95085.31;5072406;28;20182;-69
2020/12/08 01:44:38;;;;;;;31.30;18.00;;;;;;;4.92;65.42;95080.03;5069453;28;20677;-69
2020/12/08 01:47:05;;;;;;;27.67;16.43;;;;;;;4.43;67.77;95093.97;5057566;28;20186;-68
2020/12/08 01:49:30;;;;;;;32.27;17.20;;;;;;;4.74;66.00;95084.63;5076409;28;20213;-68
2020/12/08 01:51:58;;;;;;;28.40;15.43;;;;;;;4.76;66.56;95086.09;5082431;28;20448;-65
2020/12/08 01:54:24;;;;;;;31.17;17.40;;;;;;;4.99;65.85;95077.56;5079932;28;20262;-66
2020/12/08 01:56:50;;;;;;;27.50;15.47;;;;;;;5.10;65.05;95083.34;5079294;28;20451;-69
2020/12/08 01:59:16;;;;;;;28.17;16.13;;;;;;;5.21;64.96;95082.97;5077286;28;20453;-68
2020/12/08 02:01:41;;;;;;;29.47;17.17;;;;;;;5.26;64.67;95088.47;5077649;28;20190;-68
2020/12/08 02:04:07;;;;;;;28.07;17.70;;;;;;;5.21;64.34;95080.38;5074209;28;20210;-67
2020/12/08 02:06:33;;;;;;;29.77;17.87;;;;;;;5.15;64.46;95081.06;5070279;28;20190;-65
2020/12/08 02:08:59;;;;;;;29.93;17.97;;;;;;;4.94;65.34;95077.25;5066018;28;20607;-66
2020/12/08 02:11:25;;;;;;;30.30;18.07;;;;;;;4.92;64.98;95076.59;5070039;28;20421;-67
2020/12/08 02:13:51;;;;;;;29.50;17.30;;;;;;;4.53;65.93;95077.41;5071025;28;20206;-68
2020/12/08 02:16:16;;;;;;;31.23;17.93;;;;;;;4.56;66.65;95080.47;5055356;28;20423;-68
2020/12/08 02:18:42;;;;;;;29.80;17.50;;;;;;;4.48;66.70;95074.50;5069840;28;20190;-67
2020/12/08 02:21:08;;;;;;;28.27;16.80;;;;;;;4.49;66.69;95076.91;5070662;28;20194;-68
2020/12/08 02:23:34;;;;;;;33.43;19.10;;;;;;;4.53;66.43;95072.22;5070959;28;20633;-67
2020/12/08 02:26:02;;;;;;;31.63;17.77;;;;;;;4.54;66.21;95079.00;5064057;28;20436;-67
2020/12/08 02:28:28;;;;;;;34.70;18.37;;;;;;;4.30;67.66;95089.31;5074919;28;20498;-70
2020/12/08 02:30:54;;;;;;;38.10;18.20;;;;;;;4.63;66.85;95077.22;5074748;28;20943;-69
2020/12/08 02:33:28;;;;;;;32.07;17.50;;;;;;;4.67;65.89;95084.47;5075163;28;20534;-71
2020/12/08 02:35:57;;;;;;;32.23;17.80;;;;;;;4.71;65.78;95079.78;5074952;28;20431;-67
2020/12/08 02:38:24;;;;;;;26.47;15.77;;;;;;;4.75;66.16;95081.88;5074975;28;20515;-66
2020/12/08 02:40:50;;;;;;;30.57;18.10;;;;;;;4.82;65.88;95083.78;5072934;28;20510;-68
2020/12/08 02:43:16;;;;;;;28.73;16.20;;;;;;;4.90;65.30;95081.19;5075022;28;20423;-68
2020/12/08 02:45:42;;;;;;;29.03;16.53;;;;;;;4.94;65.20;95072.06;5059555;28;20438;-68
2020/12/08 02:48:08;;;;;;;31.23;17.80;;;;;;;4.99;65.66;95067.19;5090205;28;20186;-67
2020/12/08 02:50:34;;;;;;;24.80;15.20;;;;;;;5.01;65.07;95070.41;5072975;28;20276;-67
2020/12/08 02:53:00;;;;;;;29.50;16.73;;;;;;;4.89;65.43;95077.75;5072970;28;20205;-68
2020/12/08 02:55:26;;;;;;;30.20;17.20;;;;;;;4.97;65.03;95069.13;5074371;28;21003;-68
2020/12/08 02:57:52;;;;;;;30.10;17.60;;;;;;;5.01;64.77;95070.41;5074790;28;20269;-69
2020/12/08 03:00:17;;;;;;;27.13;15.77;;;;;;;5.00;64.99;95068.81;5073050;28;20263;-67
2020/12/08 03:02:43;;;;;;;28.50;16.47;;;;;;;4.94;64.70;95068.66;5074500;28;20189;-68
2020/12/08 03:05:09;;;;;;;26.53;16.77;;;;;;;4.91;65.01;95064.63;5074132;28;20212;-68
2020/12/08 03:07:34;;;;;;;30.87;16.40;;;;;;;4.87;65.09;95065.94;5074485;28;20182;-68
2020/12/08 03:10:00;;;;;;;30.80;17.93;;;;;;;4.90;65.06;95068.22;5069899;28;20206;-69
2020/12/08 03:12:26;;;;;;;29.87;17.80;;;;;;;4.96;65.18;95062.31;5071056;28;20205;-68
2020/12/08 03:14:52;;;;;;;36.93;16.87;;;;;;;4.95;65.27;95063.28;5068443;28;20424;-68
2020/12/08 03:17:17;;;;;;;32.43;18.07;;;;;;;4.74;66.30;95064.69;5060354;28;20182;-67
2020/12/08 03:19:43;;;;;;;24.90;15.47;;;;;;;4.85;65.83;95060.91;5074092;28;20344;-69
2020/12/08 03:22:09;;;;;;;32.30;19.00;;;;;;;4.81;65.19;95058.81;5057885;28;20178;-68
2020/12/08 03:24:34;;;;;;;30.77;17.83;;;;;;;4.56;66.92;95058.91;5068907;28;20182;-68
2020/12/08 03:27:00;;;;;;;30.53;17.03;;;;;;;4.61;66.15;95069.59;5072920;28;20258;-67
2020/12/08 03:29:26;;;;;;;31.43;18.23;;;;;;;4.74;65.68;95069.88;5065752;28;20554;-68
2020/12/08 03:31:51;;;;;;;31.87;18.07;;;;;;;4.69;66.22;95071.38;5073863;28;20209;-66
2020/12/08 03:34:17;;;;;;;29.47;17.40;;;;;;;4.66;65.55;95071.69;5072582;28;20178;-69
2020/12/08 03:36:43;;;;;;;28.13;16.60;;;;;;;4.60;66.48;95055.00;5074294;28;20555;-68
2020/12/08 03:39:08;;;;;;;33.73;18.57;;;;;;;4.70;66.09;95055.63;5055937;28;20198;-68
2020/12/08 03:41:34;;;;;;;34.13;19.53;;;;;;;4.49;66.63;95055.38;5073927;28;20178;-69
2020/12/08 03:44:00;;;;;;;35.10;18.40;;;;;;;4.59;65.65;95045.59;5072101;28;20190;-68
2020/12/08 03:46:26;;;;;;;34.30;18.97;;;;;;;4.40;65.79;95050.22;5059995;28;20635;-68
2020/12/08 03:48:53;;;;;;;36.73;19.40;;;;;;;4.46;66.68;95056.53;5076197;28;20540;-68
2020/12/08 03:51:21;;;;;;;34.17;19.07;;;;;;;4.52;66.83;95065.44;5068819;28;20908;-67
2020/12/08 03:53:47;;;;;;;35.93;18.60;;;;;;;4.40;66.81;95065.78;5074070;28;20579;-67
2020/12/08 03:56:14;;;;;;;32.57;18.73;;;;;;;4.29;66.62;95060.91;5073097;28;20420;-68
2020/12/08 03:58:40;;;;;;;35.73;20.90;;;;;;;4.27;67.03;95065.50;5073718;28;20435;-67
2020/12/08 04:01:20;;;;;;;36.57;20.23;;;;;;;4.24;66.93;95065.81;5072864;28;20436;-68
2020/12/08 04:03:50;;;;;;;37.00;20.80;;;;;;;4.21;67.13;95053.16;5053191;28;20426;-68
2020/12/08 04:06:18;;;;;;;38.27;19.90;;;;;;;4.05;67.67;95054.81;5050105;28;20473;-68
2020/12/08 04:08:47;;;;;;;33.70;19.73;;;;;;;4.13;67.29;95065.19;5069112;28;20801;-68
2020/12/08 04:11:15;;;;;;;42.13;21.73;;;;;;;4.27;67.12;95057.72;5072698;28;20781;-67
2020/12/08 04:13:41;;;;;;;39.90;19.93;;;;;;;4.17;66.88;95054.47;5073315;28;20465;-68
2020/12/08 04:16:14;;;;;;;34.80;19.83;;;;;;;4.09;67.28;95056.09;5072662;28;20417;-68
2020/12/08 04:18:40;;;;;;;36.13;19.70;;;;;;;4.14;66.87;95065.97;5079414;28;20423;-68
2020/12/08 04:21:07;;;;;;;36.53;19.30;;;;;;;4.22;66.38;95054.78;5079128;28;20444;-67
2020/12/08 04:23:32;;;;;;;35.83;20.00;;;;;;;4.26;66.49;95062.06;5075765;28;20810;-68
2020/12/08 04:25:58;;;;;;;35.60;20.67;;;;;;;4.24;66.17;95047.66;5070266;28;20432;-68
2020/12/08 04:28:24;;;;;;;37.07;20.50;;;;;;;4.27;65.87;95058.50;5073136;28;20236;-68
2020/12/08 04:30:49;;;;;;;38.00;21.40;;;;;;;4.09;67.53;95061.28;5072263;28;20822;-65
2020/12/08 04:33:15;;;;;;;43.20;21.93;;;;;;;4.06;67.69;95060.81;5072623;28;20202;-67
2020/12/08 04:35:42;;;;;;;35.97;19.73;;;;;;;4.17;67.64;95062.25;5062937;28;20186;-67
2020/12/08 04:38:11;;;;;;;35.73;20.43;;;;;;;4.27;66.49;95065.50;5072215;28;20273;-68
2020/12/08 04:40:38;;;;;;;37.53;20.70;;;;;;;4.26;66.79;95061.28;5072031;28;20459;-68
2020/12/08 04:43:05;;;;;;;40.83;21.17;;;;;;;4.29;66.54;95060.91;5072342;28;20432;-67
2020/12/08 04:45:31;;;;;;;38.97;20.20;;;;;;;4.23;66.03;95048.63;5071165;28;20432;-67
2020/12/08 04:48:05;;;;;;;38.70;20.60;;;;;;;4.08;66.65;95054.47;5071218;28;20543;-67
2020/12/08 04:50:31;;;;;;;40.73;22.77;;;;;;;4.23;66.48;95048.63;5071900;28;20209;-67
2020/12/08 04:52:57;;;;;;;38.47;20.63;;;;;;;4.10;66.43;95051.72;5065236;28;20503;-67
2020/12/08 04:55:23;;;;;;;35.90;21.10;;;;;;;4.17;66.09;95059.66;5072149;28;20434;-66
2020/12/08 04:57:49;;;;;;;50.00;26.40;;;;;;;4.24;66.05;95068.41;5072567;28;20452;-68
2020/12/08 05:00:15;;;;;;;39.10;21.10;;;;;;;4.22;66.42;95071.13;5070585;28;20793;-69
2020/12/08 05:02:51;;;;;;;44.00;22.80;;;;;;;4.34;65.99;95068.22;5072107;28;20186;-68
2020/12/08 05:05:18;;;;;;;43.90;21.77;;;;;;;4.12;65.93;95055.78;5047862;28;20208;-67
2020/12/08 05:07:45;;;;;;;38.43;20.47;;;;;;;4.16;66.40;95045.88;5070146;28;20428;-68
2020/12/08 05:10:11;;;;;;;37.37;19.83;;;;;;;4.05;66.21;95039.25;5068550;28;20567;-69
2020/12/08 05:12:37;;;;;;;38.57;21.50;;;;;;;4.05;66.68;95031.47;5072302;28;20844;-67
2020/12/08 05:15:04;;;;;;;38.87;21.20;;;;;;;4.06;66.34;95035.69;5072041;28;20464;-67
2020/12/08 05:17:29;;;;;;;37.50;20.27;;;;;;;4.16;65.81;95053.66;5072018;28;20186;-67
2020/12/08 05:20:09;;;;;;;42.13;21.53;;;;;;;4.23;65.58;95044.25;5065559;28;20494;-67
2020/12/08 05:22:36;;;;;;;33.87;19.70;;;;;;;4.33;65.83;95044.06;5072183;28;20192;-67
2020/12/08 05:25:12;;;;;;;42.57;21.97;;;;;;;4.44;65.46;95046.28;5064414;28;20421;-69
2020/12/08 05:27:39;;;;;;;40.20;22.40;;;;;;;4.43;64.90;95041.28;5071512;28;20852;-68
2020/12/08 05:30:08;;;;;;;38.03;20.50;;;;;;;4.38;65.22;95040.97;5069667;28;20539;-67
2020/12/08 05:32:38;;;;;;;37.00;20.13;;;;;;;4.45;65.29;95034.16;5071114;28;20459;-67
2020/12/08 05:35:15;;;;;;;33.37;18.90;;;;;;;4.39;65.34;95048.59;5061658;28;20436;-67
2020/12/08 05:37:46;;;;;;;52.53;21.10;;;;;;;4.48;64.99;95048.56;5071537;28;20466;-68
2020/12/08 05:40:15;;;;;;;36.77;20.00;;;;;;;4.48;64.72;95051.16;5054228;28;20509;-66
2020/12/08 05:42:42;;;;;;;38.23;20.70;;;;;;;4.29;64.75;95055.72;5071443;28;20440;-67
2020/12/08 05:45:09;;;;;;;37.77;21.53;;;;;;;4.22;65.70;95047.81;5068961;28;20443;-67
2020/12/08 05:47:43;;;;;;;37.87;21.63;;;;;;;4.36;64.98;95051.53;5071427;28;20493;-67
2020/12/08 05:50:09;;;;;;;35.67;21.10;;;;;;;4.39;64.44;95053.78;5053377;28;20432;-67
2020/12/08 05:52:35;;;;;;;37.13;21.33;;;;;;;4.35;64.38;95047.31;5071641;28;20517;-67
2020/12/08 05:55:12;;;;;;;43.17;22.50;;;;;;;4.26;64.59;95053.50;5069883;28;20194;-68
2020/12/08 05:57:40;;;;;;;40.73;21.63;;;;;;;4.35;64.76;95054.28;5070316;28;20927;-67
2020/12/08 06:00:08;;;;;;;39.43;21.47;;;;;;;4.33;64.59;95054.44;5071262;28;20428;-67
2020/12/08 06:02:34;;;;;;;40.47;21.23;;;;;;;4.14;65.22;95047.84;5070834;28;20425;-67
2020/12/08 06:05:00;;;;;;;36.30;20.50;;;;;;;4.00;65.64;95041.53;5054358;28;20775;-68
2020/12/08 06:07:30;;;;;;;38.30;21.10;;;;;;;4.02;65.28;95037.00;5070030;28;20416;-66
2020/12/08 06:10:04;;;;;;;41.63;21.30;;;;;;;4.11;65.91;95042.97;5067187;28;20209;-69
2020/12/08 06:12:30;;;;;;;46.47;23.60;;;;;;;4.17;65.35;95044.91;5069616;28;20485;-68
2020/12/08 06:14:55;;;;;;;41.03;22.90;;;;;;;4.26;65.64;95046.50;5060841;28;20461;-68
2020/12/08 06:17:21;;;;;;;40.70;22.43;;;;;;;4.31;64.74;95038.22;5071899;28;20596;-68
2020/12/08 06:19:47;;;;;;;40.37;23.17;;;;;;;4.27;65.24;95034.38;5071909;28;20206;-69
2020/12/08 06:22:14;;;;;;;36.73;21.23;;;;;;;4.15;64.67;95039.91;5076194;28;20172;-70
2020/12/08 06:24:54;;;;;;;41.90;22.10;;;;;;;4.05;66.01;95036.66;5065563;28;20600;-69
2020/12/08 06:27:21;;;;;;;40.80;21.80;;;;;;;4.08;65.93;95043.31;5056398;28;20459;-68
2020/12/08 06:29:54;;;;;;;44.67;22.53;;;;;;;4.21;65.91;95053.16;5071106;28;20946;-68
2020/12/08 06:32:26;;;;;;;42.00;22.60;;;;;;;4.20;66.13;95054.97;5071291;28;20872;-68
2020/12/08 06:35:11;;;;;;;45.33;24.03;;;;;;;4.25;66.22;95059.66;5071297;28;20428;-69
2020/12/08 06:37:56;;;;;;;42.23;22.90;;;;;;;4.11;66.40;95074.91;5057123;28;20430;-69
2020/12/08 06:40:23;;;;;;;41.70;22.40;;;;;;;4.17;65.55;95083.81;5058687;28;20448;-68
2020/12/08 06:42:50;;;;;;;42.30;22.80;;;;;;;4.12;65.63;95075.69;5071456;28;20428;-68
2020/12/08 06:45:18;;;;;;;47.13;25.03;;;;;;;4.09;65.40;95087.22;5060996;28;20444;-68
2020/12/08 06:47:45;;;;;;;43.10;23.23;;;;;;;3.84;66.72;95087.22;5071422;28;20833;-69
2020/12/08 06:50:27;;;;;;;41.63;22.73;;;;;;;3.93;66.30;95082.03;5071163;28;20440;-68
2020/12/08 06:53:01;;;;;;;44.43;24.17;;;;;;;3.96;65.21;95084.31;5071640;28;20502;-68
2020/12/08 06:55:28;;;;;;;56.53;23.00;;;;;;;3.80;66.15;95083.34;5070292;28;20454;-68
2020/12/08 06:58:04;;;;;;;44.53;23.47;;;;;;;3.82;65.51;95081.41;5070833;28;20475;-68
2020/12/08 07:00:30;;;;;;;51.00;23.30;;;;;;;3.79;65.99;95073.94;5071566;28;20542;-68
2020/12/08 07:02:56;;;;;;;43.00;22.60;;;;;;;3.79;65.69;95073.94;5062333;28;20558;-68
2020/12/08 07:05:26;;;;;;;42.00;22.13;;;;;;;3.70;66.21;95072.31;5053976;28;20197;-69
2020/12/08 07:07:51;;;;;;;40.80;23.20;;;;;;;3.26;67.96;95083.75;5051363;28;20521;-66
2020/12/08 07:10:18;;;;;;;42.80;24.00;;;;;;;3.56;66.84;95080.72;5066299;28;20543;-67
2020/12/08 07:12:49;;;;;;;48.73;22.67;;;;;;;3.62;66.56;95080.09;5068444;28;20202;-67
2020/12/08 07:15:16;;;;;;;44.03;22.40;;;;;;;3.63;66.84;95081.72;5069603;28;20931;-67
2020/12/08 07:17:42;;;;;;;46.80;24.17;;;;;;;3.76;66.46;95084.66;5074767;28;20424;-67
2020/12/08 07:20:09;;;;;;;42.80;22.33;;;;;;;3.86;65.89;95084.47;5075972;28;20452;-67
2020/12/08 07:22:45;;;;;;;47.03;23.40;;;;;;;3.81;66.50;95090.13;5059205;28;20423;-67
2020/12/08 07:25:13;;;;;;;44.30;21.73;;;;;;;3.78;66.28;95090.44;5067269;28;20856;-67
2020/12/08 07:27:44;;;;;;;40.53;22.20;;;;;;;3.86;66.30;95087.06;5076619;28;20432;-68
2020/12/08 07:30:11;;;;;;;40.03;21.23;;;;;;;3.88;66.17;95099.88;5064268;28;20505;-67
2020/12/08 07:32:37;;;;;;;39.93;22.27;;;;;;;3.88;66.02;95098.06;5076498;28;20452;-67
2020/12/08 07:35:03;;;;;;;43.63;23.60;;;;;;;3.73;65.92;95100.50;5076531;28;20443;-67
2020/12/08 07:37:35;;;;;;;40.77;22.40;;;;;;;3.68;66.54;95106.19;5075837;28;20186;-66
2020/12/08 07:40:09;;;;;;;44.47;23.00;;;;;;;3.77;66.11;95099.22;5075553;28;20536;-68
2020/12/08 07:42:36;;;;;;;43.20;23.13;;;;;;;3.80;66.00;95098.88;5061247;28;20515;-67
2020/12/08 07:45:06;;;;;;;42.30;23.73;;;;;;;3.54;66.32;95102.41;5053871;28;20445;-67
2020/12/08 07:47:32;;;;;;;45.90;22.87;;;;;;;3.58;66.36;95109.88;5061915;28;20456;-67
2020/12/08 07:49:58;;;;;;;48.93;24.07;;;;;;;3.78;66.26;95107.78;5077149;28;20551;-67
2020/12/08 07:52:23;;;;;;;37.97;21.47;;;;;;;3.81;66.09;95115.25;5075699;28;20217;-65
2020/12/08 07:54:49;;;;;;;44.10;22.03;;;;;;;3.86;66.22;95117.34;5057606;28;20223;-68
2020/12/08 07:57:15;;;;;;;44.60;22.43;;;;;;;3.93;65.88;95113.13;5076149;28;20182;-67
2020/12/08 07:59:40;;;;;;;41.60;21.60;;;;;;;3.83;66.56;95119.28;5074395;28;20644;-68
2020/12/08 08:02:07;;;;;;;45.93;24.03;;;;;;;3.91;65.87;95108.13;5074323;28;20549;-68
2020/12/08 08:04:32;;;;;;;42.33;24.00;;;;;;;3.89;65.21;95106.69;5075015;28;20198;-68
2020/12/08 08:06:58;;;;;;;41.30;22.63;;;;;;;3.83;66.02;95101.16;5057661;28;20424;-68
2020/12/08 08:09:24;;;;;;;46.03;22.37;;;;;;;3.88;65.58;95094.69;5068914;28;20247;-69
2020/12/08 08:11:50;;;;;;;46.20;22.47;;;;;;;3.85;65.48;95095.78;5072816;28;20649;-67
2020/12/08 08:14:16;;;;;;;49.47;24.73;;;;;;;3.49;66.69;95096.94;5071993;28;20182;-67
2020/12/08 08:16:41;;;;;;;49.03;22.50;;;;;;;3.60;66.57;95095.00;5066423;28;20193;-67
2020/12/08 08:19:07;;;;;;;40.13;22.47;;;;;;;3.73;66.08;95108.28;5072295;28;20182;-67
2020/12/08 08:21:33;;;;;;;48.67;24.23;;;;;;;3.87;66.21;95119.78;5051421;28;20187;-68
2020/12/08 08:23:59;;;;;;;46.10;23.60;;;;;;;3.89;66.47;95117.84;5063247;28;20179;-67
2020/12/08 08:26:26;;;;;;;45.80;23.70;;;;;;;3.77;67.01;95119.94;5066624;28;20174;-67
2020/12/08 08:28:52;;;;;;;41.43;22.50;;;;;;;3.61;66.44;95122.50;5072187;28;20436;-68
2020/12/08 08:31:18;;;;;;;46.57;23.77;;;;;;;3.76;66.12;95125.28;5068699;28;20912;-67
2020/12/08 08:33:44;;;;;;;45.33;22.90;;;;;;;3.54;67.12;95123.13;5073363;28;20452;-68
2020/12/08 08:36:10;;;;;;;46.93;23.00;;;;;;;3.26;67.57;95127.78;5073699;28;20946;-68
2020/12/08 08:38:36;;;;;;;45.63;23.42;;;;;;;3.56;66.74;95129.94;5055041;28;20450;-69
2020/12/08 08:41:02;;;;;;;44.77;24.77;;;;;;;3.31;67.24;95124.72;5038100;28;20227;-68
2020/12/08 08:43:28;;;;;;;39.20;22.27;;;;;;;3.39;67.38;95132.53;5061419;28;20547;-72
2020/12/08 08:45:55;;;;;;;40.23;21.87;;;;;;;3.49;67.15;95134.94;5057646;28;20433;-68
2020/12/08 08:48:22;;;;;;;40.00;22.27;;;;;;;3.78;65.84;95131.91;5073417;28;20281;-67
2020/12/08 08:50:48;;;;;;;43.43;23.50;;;;;;;3.74;66.23;95133.22;5071576;28;20448;-66
2020/12/08 08:53:14;;;;;;;38.53;21.90;;;;;;;3.92;66.18;95135.66;5072576;28;20532;-66
2020/12/08 08:55:40;;;;;;;39.97;22.80;;;;;;;4.37;64.85;95133.53;5065994;28;20460;-67
2020/12/08 08:58:06;;;;;;;39.40;22.33;;;;;;;4.54;64.87;95138.69;5072430;28;20918;-68
2020/12/08 09:00:31;;;;;;;44.07;23.00;;;;;;;4.76;64.04;95144.97;5071403;28;20298;-67
2020/12/08 09:02:58;;;;;;;42.50;22.40;;;;;;;4.88;63.28;95137.63;5072998;28;20202;-68
2020/12/08 09:05:25;;;;;;;43.07;23.90;;;;;;;4.96;62.54;95131.63;5066523;28;20178;-69
2020/12/08 09:07:51;;;;;;;48.07;23.43;;;;;;;4.97;62.17;95133.22;5072161;28;20497;-67
2020/12/08 09:10:17;;;;;;;39.13;22.03;;;;;;;5.14;61.88;95136.56;5061697;28;20522;-69
2020/12/08 09:12:43;;;;;;;52.23;23.03;;;;;;;5.03;62.03;95138.56;5068480;28;20487;-68
2020/12/08 09:15:09;;;;;;;37.00;21.40;;;;;;;5.06;62.49;95140.81;5062447;28;20179;-67
2020/12/08 09:17:35;;;;;;;38.47;22.40;;;;;;;4.69;63.94;95144.81;5072431;28;20661;-68
2020/12/08 09:20:01;;;;;;;56.50;22.90;;;;;;;4.80;62.86;95141.06;5072319;28;20482;-68
2020/12/08 09:22:27;;;;;;;41.50;22.60;;;;;;;4.96;61.92;95148.00;5055951;28;20265;-67
2020/12/08 09:24:53;;;;;;;34.73;20.87;;;;;;;5.12;61.62;95133.34;5072508;28;20516;-67
2020/12/08 09:27:18;;;;;;;42.80;22.47;;;;;;;5.06;61.05;95130.41;5071080;28;20193;-67
2020/12/08 09:29:44;;;;;;;43.90;21.00;;;;;;;5.17;61.42;95129.25;5065277;28;20226;-69
2020/12/08 09:32:10;;;;;;;37.53;21.57;;;;;;;4.97;61.04;95131.44;5054257;28;20203;-67
2020/12/08 09:34:36;;;;;;;41.10;21.13;;;;;;;5.34;60.92;95140.38;5072566;28;20189;-67
2020/12/08 09:37:02;;;;;;;36.60;20.67;;;;;;;5.51;60.45;95148.09;5071377;28;20174;-67
2020/12/08 09:39:28;;;;;;;36.73;20.77;;;;;;;5.27;60.39;95129.03;5071223;28;20273;-68
2020/12/08 09:41:54;;;;;;;40.30;20.87;;;;;;;5.25;60.79;95125.81;5060466;28;20457;-68
2020/12/08 09:44:20;;;;;;;36.80;21.20;;;;;;;4.91;61.60;95132.13;5050100;28;20417;-69
2020/12/08 09:46:46;;;;;;;39.00;20.77;;;;;;;5.07;61.26;95126.84;5055821;28;20478;-70
2020/12/08 09:49:13;;;;;;;34.37;20.00;;;;;;;5.25;60.54;95128.41;5066367;28;20781;-71
2020/12/08 09:51:40;;;;;;;36.23;21.13;;;;;;;5.46;60.03;95129.59;5071890;28;20209;-69
2020/12/08 09:54:06;;;;;;;35.80;21.63;;;;;;;5.55;59.74;95131.16;5071981;28;20950;-70
2020/12/08 09:56:32;;;;;;;40.70;21.20;;;;;;;5.71;58.89;95135.47;5071889;28;20428;-70
2020/12/08 09:58:58;;;;;;;36.80;22.40;;;;;;;5.71;59.83;95137.22;5070987;28;20181;-70
2020/12/08 10:01:28;;;;;;;36.43;20.63;;;;;;;5.81;59.30;95128.25;5070797;28;20469;-69
2020/12/08 10:03:54;;;;;;;34.80;19.97;;;;;;;6.13;58.61;95125.59;5071723;28;20416;-68
2020/12/08 10:06:21;;;;;;;35.50;20.53;;;;;;;6.13;58.17;95126.38;5071838;28;21100;-68
2020/12/08 10:08:47;;;;;;;36.40;21.13;;;;;;;5.95;58.85;95126.66;5068053;28;20422;-68
2020/12/08 10:11:13;;;;;;;34.73;20.60;;;;;;;6.07;58.39;95124.50;5070338;28;20436;-69
2020/12/08 10:13:40;;;;;;;35.63;21.93;;;;;;;6.01;59.22;95121.78;5071447;28;20962;-68
2020/12/08 10:16:06;;;;;;;36.60;21.40;;;;;;;5.82;59.92;95124.66;5066498;28;20413;-69
2020/12/08 10:18:32;;;;;;;36.90;22.73;;;;;;;6.04;59.17;95126.66;5071750;28;20413;-67
2020/12/08 10:20:58;;;;;;;34.13;21.37;;;;;;;6.28;58.50;95118.63;5070042;28;20455;-69
2020/12/08 10:23:24;;;;;;;36.60;20.80;;;;;;;6.40;57.58;95119.00;5070436;28;20772;-69
2020/12/08 10:25:50;;;;;;;37.37;21.80;;;;;;;6.22;57.97;95118.53;5069347;28;20425;-68
2020/12/08 10:28:16;;;;;;;35.13;20.17;;;;;;;6.01;58.38;95121.78;5069147;28;20424;-67
2020/12/08 10:30:41;;;;;;;37.53;20.90;;;;;;;6.19;58.03;95114.47;5064711;28;20758;-69
2020/12/08 10:33:07;;;;;;;32.50;20.00;;;;;;;6.49;57.33;95113.75;5055581;28;20915;-69
2020/12/08 10:35:33;;;;;;;34.13;21.07;;;;;;;6.39;57.45;95114.78;5071505;28;20520;-69
2020/12/08 10:37:59;;;;;;;38.90;21.33;;;;;;;6.29;57.09;95122.88;5070863;28;20660;-70
2020/12/08 10:40:24;;;;;;;36.27;21.27;;;;;;;6.45;57.34;95108.06;5072642;28;20572;-68
2020/12/08 10:42:51;;;;;;;41.73;22.53;;;;;;;6.63;57.10;95114.72;5072515;28;20178;-67
2020/12/08 10:45:16;;;;;;;36.70;21.13;;;;;;;6.71;56.93;95110.25;5062291;28;20219;-70
2020/12/08 10:47:42;;;;;;;34.30;21.17;;;;;;;6.88;55.96;95110.06;5074524;28;20429;-69
2020/12/08 10:50:08;;;;;;;35.23;21.57;;;;;;;6.69;55.85;95114.00;5075639;28;20247;-67
2020/12/08 10:52:34;;;;;;;37.27;21.30;;;;;;;6.62;56.28;95116.50;5057987;28;20567;-69
2020/12/08 10:54:59;;;;;;;37.27;21.50;;;;;;;6.70;56.48;95120.81;5074009;28;20190;-67
2020/12/08 10:57:25;;;;;;;40.30;22.93;;;;;;;6.88;56.36;95118.69;5062937;28;20216;-69
2020/12/08 10:59:51;;;;;;;39.27;20.80;;;;;;;6.64;56.03;95116.34;5070607;28;20206;-68
2020/12/08 11:02:17;;;;;;;35.13;20.20;;;;;;;6.74;55.90;95122.88;5076329;28;20190;-70
2020/12/08 11:04:43;;;;;;;33.87;21.00;;;;;;;6.85;56.01;95121.63;5074437;28;20417;-67
2020/12/08 11:07:09;;;;;;;30.67;19.37;;;;;;;7.02;58.22;95124.88;5077063;28;20448;-65
2020/12/08 11:09:35;;;;;;;26.33;16.27;;;;;;;9.63;54.42;95112.22;5076030;28;20521;-65
2020/12/08 11:12:01;;;;;;;25.13;15.33;;;;;;;10.99;50.96;95111.22;5077207;28;20637;-66
2020/12/08 11:14:28;;;;;;;25.60;16.43;;;;;;;11.87;47.11;95109.03;5062117;28;20456;-66
2020/12/08 11:16:54;;;;;;;26.30;17.97;;;;;;;11.89;43.20;95099.13;5070816;28;20189;-68
2020/12/08 11:19:20;;;;;;;29.97;18.97;;;;;;;10.46;44.78;95105.06;5073997;28;20447;-70
2020/12/08 11:21:46;;;;;;;30.47;18.57;;;;;;;9.79;46.79;95112.88;5073909;28;20798;-68
2020/12/08 11:24:12;;;;;;;33.77;20.40;;;;;;;9.02;48.51;95113.00;5075145;28;20420;-68